sensor_id;sensor_type;location;lat;lon;timestamp;pressure;altitude;pressure_sealevel;temperature;humidity
83185;BME280;73080;48.768;11.528;2024-01-10T00:00:08;97837.06;;;-6.66;71.29
83185;BME280;73080;48.768;11.528;2024-01-10T00:02:34;97842.16;;;-6.66;71.33
83185;BME280;73080;48.768;11.528;2024-01-10T00:04:59;97837.19;;;-6.56;71.00
83185;BME280;73080;48.768;11.528;2024-01-10T00:07:24;97838.16;;;-6.46;71.44
83185;BME280;73080;48.768;11.528;2024-01-10T00:09:50;97841.06;;;-6.40;70.45
83185;BME280;73080;48.768;11.528;2024-01-10T00:12:15;97840.47;;;-6.43;70.49
83185;BME280;73080;48.768;11.528;2024-01-10T00:14:40;97840.69;;;-6.35;70.58
83185;BME280;73080;48.768;11.528;2024-01-10T00:17:06;97843.13;;;-6.45;70.70
83185;BME280;73080;48.768;11.528;2024-01-10T00:19:31;97844.19;;;-6.47;71.55
83185;BME280;73080;48.768;11.528;2024-01-10T00:21:56;97834.41;;;-6.42;70.59
83185;BME280;73080;48.768;11.528;2024-01-10T00:24:22;97828.72;;;-6.34;69.04
83185;BME280;73080;48.768;11.528;2024-01-10T00:26:47;97825.72;;;-6.28;68.92
83185;BME280;73080;48.768;11.528;2024-01-10T00:29:12;97826.78;;;-6.31;69.55
83185;BME280;73080;48.768;11.528;2024-01-10T00:31:38;97831.19;;;-6.22;68.03
83185;BME280;73080;48.768;11.528;2024-01-10T00:34:04;97833.50;;;-6.07;67.85
83185;BME280;73080;48.768;11.528;2024-01-10T00:36:30;97830.59;;;-6.14;67.97
83185;BME280;73080;48.768;11.528;2024-01-10T00:38:58;97827.81;;;-6.11;68.55
83185;BME280;73080;48.768;11.528;2024-01-10T00:41:23;97829.56;;;-6.12;68.58
83185;BME280;73080;48.768;11.528;2024-01-10T00:43:49;97829.31;;;-6.09;68.18
83185;BME280;73080;48.768;11.528;2024-01-10T00:46:14;97826.88;;;-6.10;68.89
83185;BME280;73080;48.768;11.528;2024-01-10T00:48:40;97831.06;;;-6.09;69.22
83185;BME280;73080;48.768;11.528;2024-01-10T00:51:05;97828.16;;;-6.04;69.22
83185;BME280;73080;48.768;11.528;2024-01-10T00:53:30;97834.66;;;-6.00;69.39
83185;BME280;73080;48.768;11.528;2024-01-10T00:55:56;97838.50;;;-6.06;69.24
83185;BME280;73080;48.768;11.528;2024-01-10T00:58:21;97834.78;;;-6.02;68.96
83185;BME280;73080;48.768;11.528;2024-01-10T01:00:47;97829.56;;;-6.12;69.90
83185;BME280;73080;48.768;11.528;2024-01-10T01:03:12;97829.19;;;-6.07;69.72
83185;BME280;73080;48.768;11.528;2024-01-10T01:05:37;97829.56;;;-6.12;69.49
83185;BME280;73080;48.768;11.528;2024-01-10T01:08:03;97827.34;;;-6.16;69.79
83185;BME280;73080;48.768;11.528;2024-01-10T01:10:28;97817.47;;;-6.21;69.55
83185;BME280;73080;48.768;11.528;2024-01-10T01:12:53;97842.09;;;-6.09;70.88
83185;BME280;73080;48.768;11.528;2024-01-10T01:15:19;97838.38;;;-6.16;69.79
83185;BME280;73080;48.768;11.528;2024-01-10T01:17:44;97841.53;;;-6.12;70.03
83185;BME280;73080;48.768;11.528;2024-01-10T01:20:09;97836.19;;;-6.09;70.40
83185;BME280;73080;48.768;11.528;2024-01-10T01:22:35;97841.19;;;-6.19;69.24
83185;BME280;73080;48.768;11.528;2024-01-10T01:25:00;97841.97;;;-6.07;69.20
83185;BME280;73080;48.768;11.528;2024-01-10T01:27:26;97844.88;;;-6.00;69.35
83185;BME280;73080;48.768;11.528;2024-01-10T01:29:51;97845.81;;;-6.01;69.92
83185;BME280;73080;48.768;11.528;2024-01-10T01:32:16;97848.81;;;-6.07;68.73
83185;BME280;73080;48.768;11.528;2024-01-10T01:34:41;97839.66;;;-5.99;68.43
83185;BME280;73080;48.768;11.528;2024-01-10T01:37:07;97854.66;;;-6.05;68.24
83185;BME280;73080;48.768;11.528;2024-01-10T01:39:32;97852.09;;;-5.94;68.52
83185;BME280;73080;48.768;11.528;2024-01-10T01:41:58;97853.69;;;-5.93;68.50
83185;BME280;73080;48.768;11.528;2024-01-10T01:44:23;97854.03;;;-5.87;68.94
83185;BME280;73080;48.768;11.528;2024-01-10T01:46:49;97851.13;;;-5.82;68.66
83185;BME280;73080;48.768;11.528;2024-01-10T01:49:14;97847.66;;;-5.92;69.11
83185;BME280;73080;48.768;11.528;2024-01-10T01:51:40;97837.13;;;-5.99;69.17
83185;BME280;73080;48.768;11.528;2024-01-10T01:54:09;97843.50;;;-6.04;69.46
83185;BME280;73080;48.768;11.528;2024-01-10T01:56:38;97846.47;;;-5.88;69.05
83185;BME280;73080;48.768;11.528;2024-01-10T01:59:04;97856.09;;;-5.81;69.12
83185;BME280;73080;48.768;11.528;2024-01-10T02:01:30;97859.09;;;-5.64;68.36
83185;BME280;73080;48.768;11.528;2024-01-10T02:04:01;97854.28;;;-6.01;69.13
83185;BME280;73080;48.768;11.528;2024-01-10T02:06:26;97853.69;;;-5.93;69.73
83185;BME280;73080;48.768;11.528;2024-01-10T02:08:51;97858.00;;;-5.94;69.52
83185;BME280;73080;48.768;11.528;2024-01-10T02:11:17;97847.97;;;-5.86;68.84
83185;BME280;73080;48.768;11.528;2024-01-10T02:13:42;97850.78;;;-5.89;68.85
83185;BME280;73080;48.768;11.528;2024-01-10T02:16:08;97854.50;;;-5.93;69.00
83185;BME280;73080;48.768;11.528;2024-01-10T02:18:34;97849.91;;;-5.99;68.86
83185;BME280;73080;48.768;11.528;2024-01-10T02:20:59;97856.16;;;-6.03;69.23
83185;BME280;73080;48.768;11.528;2024-01-10T02:23:24;97854.41;;;-6.14;69.14
83185;BME280;73080;48.768;11.528;2024-01-10T02:25:50;97861.84;;;-5.99;69.71
83185;BME280;73080;48.768;11.528;2024-01-10T02:28:15;97856.97;;;-6.02;69.08
83185;BME280;73080;48.768;11.528;2024-01-10T02:30:41;97856.00;;;-5.90;68.96
83185;BME280;73080;48.768;11.528;2024-01-10T02:33:06;97853.44;;;-5.90;68.84
83185;BME280;73080;48.768;11.528;2024-01-10T02:35:31;97859.25;;;-5.88;68.31
83185;BME280;73080;48.768;11.528;2024-01-10T02:37:56;97852.53;;;-5.89;68.05
83185;BME280;73080;48.768;11.528;2024-01-10T02:40:22;97856.88;;;-6.12;68.94
83185;BME280;73080;48.768;11.528;2024-01-10T02:42:47;97855.81;;;-6.10;68.92
83185;BME280;73080;48.768;11.528;2024-01-10T02:45:13;97851.63;;;-6.33;68.94
83185;BME280;73080;48.768;11.528;2024-01-10T02:47:38;97847.44;;;-6.23;68.79
83185;BME280;73080;48.768;11.528;2024-01-10T02:50:07;97852.44;;;-6.21;69.17
83185;BME280;73080;48.768;11.528;2024-01-10T02:52:35;97852.44;;;-6.21;68.96
83185;BME280;73080;48.768;11.528;2024-01-10T02:55:01;97847.44;;;-6.12;68.78
83185;BME280;73080;48.768;11.528;2024-01-10T02:57:26;97849.66;;;-6.29;69.08
83185;BME280;73080;48.768;11.528;2024-01-10T02:59:51;97846.06;;;-6.27;68.85
83185;BME280;73080;48.768;11.528;2024-01-10T03:02:17;97850.22;;;-6.15;68.41
83185;BME280;73080;48.768;11.528;2024-01-10T03:04:43;97836.66;;;-6.04;68.04
83185;BME280;73080;48.768;11.528;2024-01-10T03:07:08;97839.78;;;-6.12;69.40
83185;BME280;73080;48.768;11.528;2024-01-10T03:09:36;97838.94;;;-6.01;69.83
83185;BME280;73080;48.768;11.528;2024-01-10T03:12:02;97838.84;;;-6.11;69.48
83185;BME280;73080;48.768;11.528;2024-01-10T03:14:27;97842.69;;;-6.05;69.78
83185;BME280;73080;48.768;11.528;2024-01-10T03:16:53;97847.44;;;-6.00;70.00
83185;BME280;73080;48.768;11.528;2024-01-10T03:19:21;97846.63;;;-6.01;70.04
83185;BME280;73080;48.768;11.528;2024-01-10T03:21:46;97848.44;;;-5.81;69.39
83185;BME280;73080;48.768;11.528;2024-01-10T03:24:12;97839.22;;;-5.61;68.46
83185;BME280;73080;48.768;11.528;2024-01-10T03:26:37;97838.28;;;-5.71;69.03
83185;BME280;73080;48.768;11.528;2024-01-10T03:29:03;97837.06;;;-5.88;69.49
83185;BME280;73080;48.768;11.528;2024-01-10T03:31:29;97835.06;;;-5.73;69.65
83185;BME280;73080;48.768;11.528;2024-01-10T03:33:56;97829.06;;;-5.94;69.96
83185;BME280;73080;48.768;11.528;2024-01-10T03:36:21;97834.44;;;-6.20;71.21
83185;BME280;73080;48.768;11.528;2024-01-10T03:38:46;97832.13;;;-6.34;71.31
83185;BME280;73080;48.768;11.528;2024-01-10T03:41:15;97836.75;;;-6.05;70.69
83185;BME280;73080;48.768;11.528;2024-01-10T03:43:41;97840.09;;;-5.94;70.23
83185;BME280;73080;48.768;11.528;2024-01-10T03:46:07;97839.53;;;-6.09;70.50
83185;BME280;73080;48.768;11.528;2024-01-10T03:48:33;97833.97;;;-6.14;70.97
83185;BME280;73080;48.768;11.528;2024-01-10T03:50:58;97831.28;;;-6.01;70.65
83185;BME280;73080;48.768;11.528;2024-01-10T03:53:23;97833.28;;;-6.16;71.97
83185;BME280;73080;48.768;11.528;2024-01-10T03:55:49;97833.63;;;-6.09;71.23
83185;BME280;73080;48.768;11.528;2024-01-10T03:58:14;97834.22;;;-6.05;71.03
83185;BME280;73080;48.768;11.528;2024-01-10T04:00:42;97828.75;;;-6.23;71.44
83185;BME280;73080;48.768;11.528;2024-01-10T04:03:08;97828.38;;;-6.30;71.27
83185;BME280;73080;48.768;11.528;2024-01-10T04:05:33;97828.88;;;-6.25;71.68
83185;BME280;73080;48.768;11.528;2024-01-10T04:07:59;97826.06;;;-6.44;72.13
83185;BME280;73080;48.768;11.528;2024-01-10T04:10:24;97830.25;;;-6.21;70.95
83185;BME280;73080;48.768;11.528;2024-01-10T04:12:49;97830.47;;;-6.24;71.15
83185;BME280;73080;48.768;11.528;2024-01-10T04:15:15;97831.75;;;-6.07;71.01
83185;BME280;73080;48.768;11.528;2024-01-10T04:17:41;97830.00;;;-6.29;72.07
83185;BME280;73080;48.768;11.528;2024-01-10T04:20:07;97833.97;;;-6.36;72.20
83185;BME280;73080;48.768;11.528;2024-01-10T04:22:35;97826.19;;;-6.46;72.19
83185;BME280;73080;48.768;11.528;2024-01-10T04:25:04;97825.94;;;-6.43;71.52
83185;BME280;73080;48.768;11.528;2024-01-10T04:27:29;97829.31;;;-6.53;72.01
83185;BME280;73080;48.768;11.528;2024-01-10T04:29:55;97827.44;;;-6.51;71.96
83185;BME280;73080;48.768;11.528;2024-01-10T04:32:20;97824.56;;;-6.36;71.57
83185;BME280;73080;48.768;11.528;2024-01-10T04:34:45;97827.34;;;-6.39;71.84
83185;BME280;73080;48.768;11.528;2024-01-10T04:37:11;97831.88;;;-6.53;72.54
83185;BME280;73080;48.768;11.528;2024-01-10T04:39:36;97830.03;;;-6.40;71.87
83185;BME280;73080;48.768;11.528;2024-01-10T04:42:02;97832.31;;;-6.59;72.43
83185;BME280;73080;48.768;11.528;2024-01-10T04:44:27;97820.13;;;-6.56;72.03
83185;BME280;73080;48.768;11.528;2024-01-10T04:46:53;97825.81;;;-6.64;72.57
83185;BME280;73080;48.768;11.528;2024-01-10T04:49:18;97823.25;;;-6.75;73.27
83185;BME280;73080;48.768;11.528;2024-01-10T04:51:44;97824.41;;;-6.68;72.96
83185;BME280;73080;48.768;11.528;2024-01-10T04:54:09;97822.06;;;-6.71;73.08
83185;BME280;73080;48.768;11.528;2024-01-10T04:56:35;97837.78;;;-6.53;73.10
83185;BME280;73080;48.768;11.528;2024-01-10T04:59:00;97839.13;;;-6.71;73.23
83185;BME280;73080;48.768;11.528;2024-01-10T05:01:29;97835.44;;;-6.67;73.03
83185;BME280;73080;48.768;11.528;2024-01-10T05:03:54;97843.09;;;-6.56;73.01
83185;BME280;73080;48.768;11.528;2024-01-10T05:06:20;97838.97;;;-6.46;72.50
83185;BME280;73080;48.768;11.528;2024-01-10T05:08:45;97844.97;;;-6.58;72.20
83185;BME280;73080;48.768;11.528;2024-01-10T05:11:11;97847.66;;;-6.48;72.19
83185;BME280;73080;48.768;11.528;2024-01-10T05:13:40;97851.38;;;-6.52;72.67
83185;BME280;73080;48.768;11.528;2024-01-10T05:16:08;97851.13;;;-6.49;72.42
83185;BME280;73080;48.768;11.528;2024-01-10T05:18:34;97845.69;;;-6.45;71.80
83185;BME280;73080;48.768;11.528;2024-01-10T05:21:00;97853.56;;;-6.59;72.37
83185;BME280;73080;48.768;11.528;2024-01-10T05:23:25;97854.13;;;-6.67;72.63
83185;BME280;73080;48.768;11.528;2024-01-10T05:25:51;97855.78;;;-6.54;72.20
83185;BME280;73080;48.768;11.528;2024-01-10T05:28:16;97850.69;;;-6.54;72.60
83185;BME280;73080;48.768;11.528;2024-01-10T05:30:42;97850.97;;;-6.70;72.39
83185;BME280;73080;48.768;11.528;2024-01-10T05:33:07;97858.09;;;-6.51;72.44
83185;BME280;73080;48.768;11.528;2024-01-10T05:35:32;97859.66;;;-6.26;71.72
83185;BME280;73080;48.768;11.528;2024-01-10T05:37:58;97859.38;;;-6.46;71.36
83185;BME280;73080;48.768;11.528;2024-01-10T05:40:23;97856.03;;;-6.24;71.07
83185;BME280;73080;48.768;11.528;2024-01-10T05:42:51;97857.09;;;-6.26;71.21
83185;BME280;73080;48.768;11.528;2024-01-10T05:45:16;97858.13;;;-6.29;71.46
83185;BME280;73080;48.768;11.528;2024-01-10T05:47:42;97865.44;;;-6.36;71.79
83185;BME280;73080;48.768;11.528;2024-01-10T05:50:07;97858.44;;;-6.56;72.00
83185;BME280;73080;48.768;11.528;2024-01-10T05:52:35;97849.94;;;-6.68;73.23
83185;BME280;73080;48.768;11.528;2024-01-10T05:55:01;97856.94;;;-6.58;73.54
83185;BME280;73080;48.768;11.528;2024-01-10T05:57:26;97861.03;;;-6.33;72.26
83185;BME280;73080;48.768;11.528;2024-01-10T05:59:52;97858.94;;;-6.28;72.69
83185;BME280;73080;48.768;11.528;2024-01-10T06:02:17;97862.78;;;-6.34;72.72
83185;BME280;73080;48.768;11.528;2024-01-10T06:04:42;97857.88;;;-6.48;72.89
83185;BME280;73080;48.768;11.528;2024-01-10T06:07:08;97862.03;;;-6.58;72.97
83185;BME280;73080;48.768;11.528;2024-01-10T06:09:33;97859.63;;;-6.38;72.23
83185;BME280;73080;48.768;11.528;2024-01-10T06:11:58;97860.56;;;-6.27;71.66
83185;BME280;73080;48.768;11.528;2024-01-10T06:14:27;97866.03;;;-6.21;71.93
83185;BME280;73080;48.768;11.528;2024-01-10T06:16:52;97863.81;;;-6.37;72.73
83185;BME280;73080;48.768;11.528;2024-01-10T06:19:18;97875.66;;;-6.47;72.80
83185;BME280;73080;48.768;11.528;2024-01-10T06:21:43;97869.88;;;-6.26;72.13
83185;BME280;73080;48.768;11.528;2024-01-10T06:24:12;97872.84;;;-6.44;73.23
83185;BME280;73080;48.768;11.528;2024-01-10T06:26:37;97878.66;;;-6.53;73.55
83185;BME280;73080;48.768;11.528;2024-01-10T06:29:02;97878.00;;;-6.32;72.59
83185;BME280;73080;48.768;11.528;2024-01-10T06:31:28;97876.69;;;-6.38;72.40
83185;BME280;73080;48.768;11.528;2024-01-10T06:33:53;97870.38;;;-6.56;72.44
83185;BME280;73080;48.768;11.528;2024-01-10T06:36:19;97878.66;;;-6.53;72.14
83185;BME280;73080;48.768;11.528;2024-01-10T06:38:44;97881.41;;;-6.67;72.69
83185;BME280;73080;48.768;11.528;2024-01-10T06:41:10;97877.69;;;-6.74;73.19
83185;BME280;73080;48.768;11.528;2024-01-10T06:43:36;97877.00;;;-6.65;72.72
83185;BME280;73080;48.768;11.528;2024-01-10T06:46:02;97880.88;;;-6.48;72.67
83185;BME280;73080;48.768;11.528;2024-01-10T06:48:27;97876.06;;;-6.75;72.66
83185;BME280;73080;48.768;11.528;2024-01-10T06:50:53;97884.78;;;-6.67;72.50
83185;BME280;73080;48.768;11.528;2024-01-10T06:53:18;97884.88;;;-6.68;72.79
83185;BME280;73080;48.768;11.528;2024-01-10T06:55:44;97884.28;;;-6.72;72.28
83185;BME280;73080;48.768;11.528;2024-01-10T06:58:09;97880.91;;;-6.72;72.66
83185;BME280;73080;48.768;11.528;2024-01-10T07:00:37;97895.13;;;-6.57;72.30
83185;BME280;73080;48.768;11.528;2024-01-10T07:03:02;97891.38;;;-6.64;72.10
83185;BME280;73080;48.768;11.528;2024-01-10T07:05:28;97889.84;;;-6.78;72.93
83185;BME280;73080;48.768;11.528;2024-01-10T07:07:53;97897.53;;;-6.67;72.60
83185;BME280;73080;48.768;11.528;2024-01-10T07:10:21;97898.66;;;-6.82;72.75
83185;BME280;73080;48.768;11.528;2024-01-10T07:12:47;97910.31;;;-6.67;72.77
83185;BME280;73080;48.768;11.528;2024-01-10T07:15:12;97904.66;;;-6.59;72.02
83185;BME280;73080;48.768;11.528;2024-01-10T07:17:38;97907.75;;;-6.67;72.61
83185;BME280;73080;48.768;11.528;2024-01-10T07:20:10;97905.16;;;-6.78;73.22
83185;BME280;73080;48.768;11.528;2024-01-10T07:22:35;97907.44;;;-6.86;73.00
83185;BME280;73080;48.768;11.528;2024-01-10T07:25:01;97905.56;;;-6.60;72.32
83185;BME280;73080;48.768;11.528;2024-01-10T07:27:26;97922.38;;;-6.33;71.31
83185;BME280;73080;48.768;11.528;2024-01-10T07:29:51;97913.59;;;-6.53;72.11
83185;BME280;73080;48.768;11.528;2024-01-10T07:32:17;97919.28;;;-6.50;72.16
83185;BME280;73080;48.768;11.528;2024-01-10T07:34:42;97922.56;;;-6.37;72.15
83185;BME280;73080;48.768;11.528;2024-01-10T07:37:08;97930.47;;;-6.28;71.36
83185;BME280;73080;48.768;11.528;2024-01-10T07:39:33;97916.97;;;-6.42;72.08
83185;BME280;73080;48.768;11.528;2024-01-10T07:41:59;97918.25;;;-6.47;72.75
83185;BME280;73080;48.768;11.528;2024-01-10T07:44:24;97917.63;;;-6.27;71.43
83185;BME280;73080;48.768;11.528;2024-01-10T07:46:49;97921.56;;;-5.89;70.91
83185;BME280;73080;48.768;11.528;2024-01-10T07:49:15;97933.22;;;-5.96;71.20
83185;BME280;73080;48.768;11.528;2024-01-10T07:51:40;97927.28;;;-5.97;70.18
83185;BME280;73080;48.768;11.528;2024-01-10T07:54:06;97931.13;;;-5.91;70.02
83185;BME280;73080;48.768;11.528;2024-01-10T07:56:34;97930.00;;;-5.44;68.86
83185;BME280;73080;48.768;11.528;2024-01-10T07:58:59;97924.81;;;-5.76;69.14
83185;BME280;73080;48.768;11.528;2024-01-10T08:01:25;97928.09;;;-5.19;68.30
83185;BME280;73080;48.768;11.528;2024-01-10T08:03:51;97934.03;;;-4.87;66.58
83185;BME280;73080;48.768;11.528;2024-01-10T08:06:19;97926.09;;;-5.05;67.26
83185;BME280;73080;48.768;11.528;2024-01-10T08:08:44;97936.38;;;-5.27;68.88
83185;BME280;73080;48.768;11.528;2024-01-10T08:11:10;97929.72;;;-4.86;68.15
83185;BME280;73080;48.768;11.528;2024-01-10T08:13:35;97934.00;;;-4.76;67.42
83185;BME280;73080;48.768;11.528;2024-01-10T08:16:01;97937.06;;;-4.82;67.33
83185;BME280;73080;48.768;11.528;2024-01-10T08:18:26;97931.19;;;-4.73;67.53
83185;BME280;73080;48.768;11.528;2024-01-10T08:20:51;97926.78;;;-4.71;66.99
83185;BME280;73080;48.768;11.528;2024-01-10T08:23:17;97929.56;;;-4.21;65.59
83185;BME280;73080;48.768;11.528;2024-01-10T08:25:45;97932.88;;;-4.30;65.45
83185;BME280;73080;48.768;11.528;2024-01-10T08:28:10;97933.00;;;-4.84;67.28
83185;BME280;73080;48.768;11.528;2024-01-10T08:30:36;97938.25;;;-4.86;67.20
83185;BME280;73080;48.768;11.528;2024-01-10T08:33:01;97945.97;;;-4.65;67.39
83185;BME280;73080;48.768;11.528;2024-01-10T08:35:27;97941.22;;;-4.70;67.64
83185;BME280;73080;48.768;11.528;2024-01-10T08:37:52;97946.63;;;-4.84;67.78
83185;BME280;73080;48.768;11.528;2024-01-10T08:40:17;97952.84;;;-4.45;66.99
83185;BME280;73080;48.768;11.528;2024-01-10T08:42:43;97947.91;;;-3.95;66.65
83185;BME280;73080;48.768;11.528;2024-01-10T08:45:09;97953.94;;;-3.75;65.01
83185;BME280;73080;48.768;11.528;2024-01-10T08:47:34;97956.84;;;-4.52;66.64
83185;BME280;73080;48.768;11.528;2024-01-10T08:50:01;97953.03;;;-4.89;67.65
83185;BME280;73080;48.768;11.528;2024-01-10T08:52:29;97962.00;;;-4.84;67.75
83185;BME280;73080;48.768;11.528;2024-01-10T08:54:55;97960.47;;;-4.86;67.43
83185;BME280;73080;48.768;11.528;2024-01-10T08:57:21;97959.75;;;-4.77;66.61
83185;BME280;73080;48.768;11.528;2024-01-10T08:59:46;97958.50;;;-4.83;66.77
83185;BME280;73080;48.768;11.528;2024-01-10T09:02:11;97961.78;;;-4.60;66.77
83185;BME280;73080;48.768;11.528;2024-01-10T09:04:36;97959.19;;;-4.81;66.58
83185;BME280;73080;48.768;11.528;2024-01-10T09:07:02;97963.81;;;-4.43;65.66
83185;BME280;73080;48.768;11.528;2024-01-10T09:09:27;97961.81;;;-4.39;66.39
83185;BME280;73080;48.768;11.528;2024-01-10T09:11:52;97965.63;;;-4.65;66.36
83185;BME280;73080;48.768;11.528;2024-01-10T09:14:21;97966.44;;;-4.33;66.02
83185;BME280;73080;48.768;11.528;2024-01-10T09:16:49;97968.00;;;-4.00;64.99
83185;BME280;73080;48.768;11.528;2024-01-10T09:19:14;97969.28;;;-3.84;64.33
83185;BME280;73080;48.768;11.528;2024-01-10T09:21:39;97970.38;;;-3.87;63.61
83185;BME280;73080;48.768;11.528;2024-01-10T09:24:05;97967.38;;;-3.62;63.00
83185;BME280;73080;48.768;11.528;2024-01-10T09:26:30;97973.03;;;-3.89;63.29
83185;BME280;73080;48.768;11.528;2024-01-10T09:28:55;97979.81;;;-3.88;64.10
83185;BME280;73080;48.768;11.528;2024-01-10T09:31:21;97978.00;;;-3.97;64.39
83185;BME280;73080;48.768;11.528;2024-01-10T09:33:46;97978.59;;;-3.53;64.06
83185;BME280;73080;48.768;11.528;2024-01-10T09:36:11;97979.28;;;-3.81;63.87
83185;BME280;73080;48.768;11.528;2024-01-10T09:38:37;97978.75;;;-3.85;64.53
83185;BME280;73080;48.768;11.528;2024-01-10T09:41:03;97970.41;;;-3.77;64.42
83185;BME280;73080;48.768;11.528;2024-01-10T09:43:32;97981.63;;;-3.78;64.70
83185;BME280;73080;48.768;11.528;2024-01-10T09:45:58;97971.03;;;-3.54;62.76
83185;BME280;73080;48.768;11.528;2024-01-10T09:48:25;97974.72;;;-3.47;62.97
83185;BME280;73080;48.768;11.528;2024-01-10T09:50:51;97984.16;;;-3.57;63.32
83185;BME280;73080;48.768;11.528;2024-01-10T09:53:27;97982.63;;;-3.60;63.50
83185;BME280;73080;48.768;11.528;2024-01-10T09:55:53;97977.88;;;-3.34;62.81
83185;BME280;73080;48.768;11.528;2024-01-10T09:58:18;97983.38;;;-3.39;62.70
83185;BME280;73080;48.768;11.528;2024-01-10T10:00:44;97977.34;;;-3.28;62.62
83185;BME280;73080;48.768;11.528;2024-01-10T10:03:10;97985.34;;;-3.31;62.67
83185;BME280;73080;48.768;11.528;2024-01-10T10:05:35;97984.84;;;-3.06;62.04
83185;BME280;73080;48.768;11.528;2024-01-10T10:08:01;97980.31;;;-3.33;62.98
83185;BME280;73080;48.768;11.528;2024-01-10T10:10:26;97984.47;;;-3.01;61.68
83185;BME280;73080;48.768;11.528;2024-01-10T10:12:52;97985.50;;;-3.23;62.62
83185;BME280;73080;48.768;11.528;2024-01-10T10:15:18;97976.97;;;-3.23;62.51
83185;BME280;73080;48.768;11.528;2024-01-10T10:17:45;97982.72;;;-3.41;63.19
83185;BME280;73080;48.768;11.528;2024-01-10T10:20:11;97982.72;;;-3.41;63.01
83185;BME280;73080;48.768;11.528;2024-01-10T10:22:36;97985.50;;;-3.23;63.05
83185;BME280;73080;48.768;11.528;2024-01-10T10:25:02;97984.41;;;-3.20;62.61
83185;BME280;73080;48.768;11.528;2024-01-10T10:27:27;97981.31;;;-3.14;62.00
83185;BME280;73080;48.768;11.528;2024-01-10T10:29:52;97988.56;;;-2.69;60.64
83185;BME280;73080;48.768;11.528;2024-01-10T10:32:18;97977.28;;;-3.17;61.44
83185;BME280;73080;48.768;11.528;2024-01-10T10:34:43;97979.19;;;-2.99;62.56
83185;BME280;73080;48.768;11.528;2024-01-10T10:37:08;97977.56;;;-2.91;61.94
83185;BME280;73080;48.768;11.528;2024-01-10T10:39:34;97973.56;;;-2.74;61.44
83185;BME280;73080;48.768;11.528;2024-01-10T10:42:00;97971.78;;;-2.35;61.95
83185;BME280;73080;48.768;11.528;2024-01-10T10:44:28;97973.97;;;-2.59;60.85
83185;BME280;73080;48.768;11.528;2024-01-10T10:47:04;97976.53;;;-2.59;61.84
83185;BME280;73080;48.768;11.528;2024-01-10T10:49:31;97981.41;;;-2.37;62.58
83185;BME280;73080;48.768;11.528;2024-01-10T10:52:03;97988.22;;;-1.32;60.58
83185;BME280;73080;48.768;11.528;2024-01-10T10:54:30;97978.47;;;-1.39;59.03
83185;BME280;73080;48.768;11.528;2024-01-10T10:56:57;97980.66;;;-1.90;60.08
83185;BME280;73080;48.768;11.528;2024-01-10T10:59:26;97983.56;;;-2.52;60.44
83185;BME280;73080;48.768;11.528;2024-01-10T11:01:51;97981.69;;;-2.30;61.20
83185;BME280;73080;48.768;11.528;2024-01-10T11:04:20;97974.50;;;-2.17;60.30
83185;BME280;73080;48.768;11.528;2024-01-10T11:06:46;97975.47;;;-1.71;59.41
83185;BME280;73080;48.768;11.528;2024-01-10T11:09:12;97973.84;;;-1.72;58.97
83185;BME280;73080;48.768;11.528;2024-01-10T11:14:52;97966.75;;;-2.07;60.17
83185;BME280;73080;48.768;11.528;2024-01-10T11:20:28;97962.09;;;-1.84;59.71
83185;BME280;73080;48.768;11.528;2024-01-10T11:25:26;97970.25;;;-1.89;60.50
83185;BME280;73080;48.768;11.528;2024-01-10T11:27:52;97957.38;;;-1.24;59.00
83185;BME280;73080;48.768;11.528;2024-01-10T11:30:38;97964.06;;;-1.04;58.29
83185;BME280;73080;48.768;11.528;2024-01-10T11:33:31;97957.16;;;-1.31;58.38
83185;BME280;73080;48.768;11.528;2024-01-10T11:36:19;97959.34;;;-1.73;59.62
83185;BME280;73080;48.768;11.528;2024-01-10T11:41:19;97961.66;;;-1.43;58.75
83185;BME280;73080;48.768;11.528;2024-01-10T11:43:45;97954.59;;;-1.13;60.31
83185;BME280;73080;48.768;11.528;2024-01-10T11:46:12;97950.03;;;-0.74;57.78
83185;BME280;73080;48.768;11.528;2024-01-10T11:48:37;97959.22;;;-0.53;57.29
83185;BME280;73080;48.768;11.528;2024-01-10T11:51:03;97957.78;;;-1.19;60.19
83185;BME280;73080;48.768;11.528;2024-01-10T11:53:41;97951.28;;;-0.60;57.97
83185;BME280;73080;48.768;11.528;2024-01-10T11:56:10;97947.81;;;-0.69;58.61
83185;BME280;73080;48.768;11.528;2024-01-10T11:59:01;97945.16;;;-0.15;58.40
83185;BME280;73080;48.768;11.528;2024-01-10T12:01:32;97948.78;;;0.44;57.06
83185;BME280;73080;48.768;11.528;2024-01-10T12:03:58;97946.38;;;0.93;56.48
83185;BME280;73080;48.768;11.528;2024-01-10T12:06:31;97942.84;;;1.10;54.51
83185;BME280;73080;48.768;11.528;2024-01-10T12:08:56;97941.25;;;1.25;54.47
83185;BME280;73080;48.768;11.528;2024-01-10T12:11:25;97946.13;;;1.45;53.89
83185;BME280;73080;48.768;11.528;2024-01-10T12:13:53;97947.19;;;0.51;54.18
83185;BME280;73080;48.768;11.528;2024-01-10T12:16:18;97939.41;;;0.43;54.70
83185;BME280;73080;48.768;11.528;2024-01-10T12:18:44;97941.38;;;-0.03;56.69
83185;BME280;73080;48.768;11.528;2024-01-10T12:21:12;97938.88;;;-0.21;56.79
83185;BME280;73080;48.768;11.528;2024-01-10T12:23:38;97941.38;;;-0.03;56.57
83185;BME280;73080;48.768;11.528;2024-01-10T12:26:07;97936.38;;;0.21;57.31
83185;BME280;73080;48.768;11.528;2024-01-10T12:28:37;97942.41;;;0.04;56.93
83185;BME280;73080;48.768;11.528;2024-01-10T12:31:08;97936.78;;;-0.17;55.85
83185;BME280;73080;48.768;11.528;2024-01-10T12:33:35;97935.75;;;-0.07;56.15
83185;BME280;73080;48.768;11.528;2024-01-10T12:36:08;97936.13;;;-0.19;56.88
83185;BME280;73080;48.768;11.528;2024-01-10T12:38:35;97930.00;;;-0.18;58.15
83185;BME280;73080;48.768;11.528;2024-01-10T12:41:01;97927.84;;;-0.05;56.22
83185;BME280;73080;48.768;11.528;2024-01-10T12:43:27;97933.41;;;0.42;56.22
83185;BME280;73080;48.768;11.528;2024-01-10T12:46:11;97932.72;;;0.74;55.89
83185;BME280;73080;48.768;11.528;2024-01-10T12:48:38;97938.63;;;1.01;54.36
83185;BME280;73080;48.768;11.528;2024-01-10T12:51:04;97933.31;;;1.10;53.61
83185;BME280;73080;48.768;11.528;2024-01-10T12:53:29;97932.84;;;1.15;53.89
83185;BME280;73080;48.768;11.528;2024-01-10T12:55:56;97932.06;;;1.39;53.98